createdAt,value
2023-02-11T00:01:45.802Z,15.52
2023-02-11T00:04:16.031Z,15.57
2023-02-11T00:06:45.365Z,16.75
2023-02-11T00:09:11.981Z,14.20
2023-02-11T00:11:40.797Z,18.27
2023-02-11T00:14:13.233Z,15.98
2023-02-11T00:16:42.236Z,15.20
2023-02-11T00:19:09.936Z,15.90
2023-02-11T00:21:36.812Z,17.52
2023-02-11T00:24:03.797Z,16.25
2023-02-11T00:26:33.142Z,16.85
2023-02-11T00:29:02.637Z,17.77
2023-02-11T00:31:32.614Z,15.40
2023-02-11T00:33:59.404Z,12.38
2023-02-11T00:36:29.011Z,13.55
2023-02-11T00:41:23.947Z,14.10
2023-02-11T00:43:54.049Z,13.85
2023-02-11T00:46:21.693Z,14.45
2023-02-11T00:48:48.723Z,14.32
2023-02-11T00:51:15.399Z,13.52
2023-02-11T00:53:44.619Z,14.38
2023-02-11T00:56:13.587Z,15.38
2023-02-11T00:58:42.856Z,14.05
2023-02-11T01:01:12.775Z,13.60
2023-02-11T01:03:44.171Z,12.98
2023-02-11T01:06:11.370Z,14.85
2023-02-11T01:08:38.768Z,14.50
2023-02-11T01:11:14.773Z,13.10
2023-02-11T01:13:42.278Z,12.80
2023-02-11T01:16:10.913Z,12.13
2023-02-11T01:18:41.923Z,12.50
2023-02-11T01:21:08.548Z,12.98
2023-02-11T01:23:35.166Z,12.20
2023-02-11T01:26:05.004Z,12.65
2023-02-11T01:28:34.715Z,12.25
2023-02-11T01:31:03.183Z,11.48
2023-02-11T01:33:32.446Z,11.65
2023-02-11T01:36:08.840Z,11.98
2023-02-11T01:38:35.845Z,11.45
2023-02-11T01:41:09.240Z,11.85
2023-02-11T01:43:40.792Z,11.90
2023-02-11T01:46:14.469Z,10.88
2023-02-11T01:48:45.936Z,11.02
2023-02-11T01:51:21.139Z,11.00
2023-02-11T01:54:08.518Z,10.75
2023-02-11T01:56:57.197Z,10.80
2023-02-11T01:59:53.122Z,10.90
2023-02-11T02:02:24.020Z,11.35
2023-02-11T02:04:57.558Z,12.20
2023-02-11T02:07:44.195Z,10.63
2023-02-11T02:10:19.603Z,11.13
2023-02-11T02:12:46.490Z,10.23
2023-02-11T02:15:25.802Z,10.88
2023-02-11T02:18:01.372Z,12.57
2023-02-11T02:20:27.889Z,14.18
2023-02-11T02:23:03.426Z,14.02
2023-02-11T02:25:52.350Z,17.17
2023-02-11T02:28:21.982Z,16.98
2023-02-11T02:33:38.438Z,12.73
2023-02-11T02:36:09.162Z,13.25
2023-02-11T02:38:40.994Z,13.50
2023-02-11T02:41:35.003Z,14.18
2023-02-11T02:44:01.984Z,15.05
2023-02-11T02:46:32.840Z,14.27
2023-02-11T02:49:00.318Z,15.15
2023-02-11T02:51:57.803Z,14.02
2023-02-11T02:55:06.330Z,14.57
2023-02-11T02:57:51.881Z,13.93
2023-02-11T03:00:46.588Z,13.70
2023-02-11T03:03:16.126Z,13.07
2023-02-11T03:08:36.789Z,12.30
2023-02-11T03:11:05.533Z,13.63
2023-02-11T03:13:35.259Z,12.95
2023-02-11T03:16:09.097Z,13.15
2023-02-11T03:18:37.387Z,13.55
2023-02-11T03:21:08.312Z,14.15
2023-02-11T03:23:49.988Z,12.05
2023-02-11T03:26:36.339Z,12.88
2023-02-11T03:29:20.973Z,13.40
2023-02-11T03:31:54.713Z,11.95
2023-02-11T03:34:44.956Z,13.82
2023-02-11T03:37:21.398Z,13.18
2023-02-11T03:39:57.142Z,13.00
2023-02-11T03:44:59.897Z,12.65
2023-02-11T03:47:29.841Z,12.77
2023-02-11T03:49:59.395Z,14.15
2023-02-11T03:55:02.012Z,10.80
2023-02-11T03:57:28.859Z,12.63
2023-02-11T03:59:57.427Z,11.93
2023-02-11T04:02:29.409Z,13.02
2023-02-11T04:04:56.315Z,13.30
2023-02-11T04:07:25.755Z,13.77
2023-02-11T04:09:58.070Z,12.70
2023-02-11T04:12:24.966Z,12.98
2023-02-11T04:14:51.661Z,14.73
2023-02-11T04:17:18.572Z,14.10
2023-02-11T04:19:47.396Z,14.13
2023-02-11T04:22:14.226Z,15.48
2023-02-11T04:24:40.820Z,14.43
2023-02-11T04:27:07.623Z,15.10
2023-02-11T04:29:34.350Z,14.48
2023-02-11T04:32:01.069Z,13.68
2023-02-11T04:34:30.508Z,13.45
2023-02-11T04:36:59.913Z,14.40
2023-02-11T04:39:31.375Z,14.20
2023-02-11T04:42:00.485Z,13.95
2023-02-11T04:44:29.364Z,13.98
2023-02-11T04:46:58.707Z,12.50
2023-02-11T04:49:25.725Z,13.45
2023-02-11T04:51:52.347Z,12.48
2023-02-11T04:54:19.166Z,14.50
2023-02-11T04:56:46.008Z,13.63
2023-02-11T04:59:13.507Z,13.65
2023-02-11T05:01:41.064Z,13.10
2023-02-11T05:04:07.914Z,12.95
2023-02-11T05:06:36.959Z,14.18
2023-02-11T05:09:03.696Z,12.52
2023-02-11T05:11:30.453Z,13.23
2023-02-11T05:13:57.104Z,12.77
2023-02-11T05:16:28.614Z,12.50
2023-02-11T05:18:58.463Z,13.43
2023-02-11T05:21:25.174Z,12.82
2023-02-11T05:23:54.978Z,13.02
2023-02-11T05:26:23.957Z,13.57
2023-02-11T05:28:52.841Z,13.85
2023-02-11T05:31:19.679Z,14.73
2023-02-11T05:33:53.670Z,13.60
2023-02-11T05:36:24.089Z,13.27
2023-02-11T05:38:51.004Z,13.23
2023-02-11T05:41:17.589Z,13.00
2023-02-11T05:43:47.782Z,13.73
2023-02-11T05:46:14.443Z,13.05
2023-02-11T05:48:41.032Z,13.35
2023-02-11T05:51:07.580Z,14.98
2023-02-11T05:53:34.506Z,13.77
2023-02-11T05:56:01.447Z,13.23
2023-02-11T05:58:28.294Z,12.10
2023-02-11T06:00:54.875Z,13.75
2023-02-11T06:03:21.572Z,12.75
2023-02-11T06:05:48.486Z,12.20
2023-02-11T06:08:15.276Z,11.43
2023-02-11T06:10:47.022Z,11.93
2023-02-11T06:13:18.649Z,11.90
2023-02-11T06:15:47.882Z,12.00
2023-02-11T06:18:14.569Z,11.63
2023-02-11T06:20:46.063Z,10.90
2023-02-11T06:23:14.956Z,12.55
2023-02-11T06:25:43.848Z,13.02
2023-02-11T06:28:10.837Z,12.50
2023-02-11T06:30:38.326Z,13.15
2023-02-11T06:33:05.662Z,12.77
2023-02-11T06:35:33.508Z,12.77
2023-02-11T06:38:00.216Z,14.60
2023-02-11T06:40:27.004Z,13.13
2023-02-11T06:42:53.818Z,12.55
2023-02-11T06:45:22.809Z,13.82
2023-02-11T06:47:56.824Z,13.73
2023-02-11T06:50:25.767Z,15.25
2023-02-11T06:52:54.585Z,13.45
2023-02-11T06:55:21.182Z,13.88
2023-02-11T06:57:50.150Z,13.98
2023-02-11T07:00:17.251Z,14.30
2023-02-11T07:02:46.169Z,14.55
2023-02-11T07:05:15.061Z,13.95
2023-02-11T07:07:41.661Z,13.82
2023-02-11T07:10:08.520Z,13.13
2023-02-11T07:12:37.713Z,15.52
2023-02-11T07:15:06.027Z,13.50
2023-02-11T07:17:35.169Z,12.80
2023-02-11T07:20:01.976Z,13.45
2023-02-11T07:22:30.858Z,13.50
2023-02-11T07:24:57.455Z,14.55
2023-02-11T07:27:24.110Z,13.35
2023-02-11T07:29:50.700Z,13.73
2023-02-11T07:32:17.458Z,15.18
2023-02-11T07:34:49.638Z,13.93
2023-02-11T07:37:18.664Z,12.27
2023-02-11T07:39:45.321Z,11.52
2023-02-11T07:42:11.982Z,11.65
2023-02-11T07:44:43.406Z,9.65
2023-02-11T07:47:10.166Z,10.98
2023-02-11T07:49:39.027Z,11.15
2023-02-11T07:52:05.631Z,11.90
2023-02-11T07:54:34.702Z,11.68
2023-02-11T07:57:03.489Z,10.55
2023-02-11T07:59:30.182Z,12.95
2023-02-11T08:01:56.753Z,12.30
2023-02-11T08:04:26.415Z,10.55
2023-02-11T08:06:58.989Z,11.55
2023-02-11T08:09:26.189Z,11.98
2023-02-11T08:11:52.852Z,11.98
2023-02-11T08:14:21.666Z,11.63
2023-02-11T08:16:53.091Z,11.15
2023-02-11T08:19:22.268Z,12.70
2023-02-11T08:21:48.885Z,13.18
2023-02-11T08:24:15.784Z,14.32
2023-02-11T08:26:42.890Z,11.35
2023-02-11T08:29:14.309Z,13.00
2023-02-11T08:31:43.860Z,13.25
2023-02-11T08:34:11.773Z,13.20
2023-02-11T08:36:40.551Z,12.98
2023-02-11T08:39:21.128Z,13.48
2023-02-11T08:41:52.861Z,12.35
2023-02-11T08:44:25.496Z,12.55
2023-02-11T08:46:54.683Z,12.85
2023-02-11T08:49:25.905Z,12.35
2023-02-11T08:51:56.260Z,11.70
2023-02-11T08:54:22.894Z,13.27
2023-02-11T08:56:54.184Z,13.15
2023-02-11T08:59:20.827Z,15.48
2023-02-11T09:01:47.816Z,12.70
2023-02-11T09:04:14.531Z,14.60
2023-02-11T09:06:41.205Z,12.30
2023-02-11T09:09:13.702Z,14.90
2023-02-11T09:11:41.613Z,13.27
2023-02-11T09:14:08.206Z,14.38
2023-02-11T09:16:36.275Z,12.20
2023-02-11T09:19:05.029Z,13.48
2023-02-11T09:21:32.195Z,12.73
2023-02-11T09:23:58.926Z,13.48
2023-02-11T09:26:31.155Z,14.23
2023-02-11T09:29:00.796Z,12.30
2023-02-11T09:31:29.723Z,13.77
2023-02-11T09:34:00.521Z,13.55
2023-02-11T09:36:32.401Z,14.13
2023-02-11T09:39:03.474Z,13.88
2023-02-11T09:41:55.647Z,14.57
2023-02-11T09:44:28.781Z,13.65
2023-02-11T09:47:05.160Z,11.35
2023-02-11T09:49:41.052Z,14.13
2023-02-11T09:52:13.686Z,14.45
2023-02-11T09:54:55.678Z,14.20
2023-02-11T09:57:29.155Z,15.77
2023-02-11T10:00:01.728Z,16.92
2023-02-11T10:02:32.450Z,16.10
2023-02-11T10:05:17.058Z,17.23
2023-02-11T10:07:57.067Z,15.85
2023-02-11T10:10:42.020Z,15.25
2023-02-11T10:13:20.724Z,16.33
2023-02-11T10:16:16.692Z,16.55
2023-02-11T10:19:39.405Z,14.25
2023-02-11T10:22:25.461Z,16.55
2023-02-11T10:25:00.284Z,15.52
2023-02-11T10:27:36.011Z,15.18
2023-02-11T10:30:23.675Z,15.90
2023-02-11T10:33:19.086Z,15.85
2023-02-11T10:35:45.775Z,14.80
2023-02-11T10:38:12.803Z,15.55
2023-02-11T10:40:42.106Z,16.17
2023-02-11T10:45:48.647Z,15.23
2023-02-11T10:48:43.460Z,17.35
2023-02-11T10:51:14.569Z,14.25
2023-02-11T10:53:44.744Z,21.13
2023-02-11T10:56:28.001Z,16.38
2023-02-11T10:59:07.377Z,17.88
2023-02-11T11:01:50.859Z,15.20
2023-02-11T11:04:32.214Z,14.50
2023-02-11T11:07:24.984Z,13.90
2023-02-11T11:09:59.686Z,13.60
2023-02-11T11:12:30.178Z,13.50
2023-02-11T11:15:21.830Z,13.20
2023-02-11T11:18:21.230Z,13.18
2023-02-11T11:21:09.975Z,12.57
2023-02-11T11:23:37.843Z,13.52
2023-02-11T11:26:11.719Z,13.93
2023-02-11T11:29:01.365Z,12.32
2023-02-11T11:31:31.059Z,13.80
2023-02-11T11:34:05.064Z,12.73
2023-02-11T11:36:41.021Z,12.55
2023-02-11T11:39:30.190Z,13.85
2023-02-11T11:42:03.378Z,13.27
2023-02-11T11:44:36.252Z,11.75
2023-02-11T11:47:23.122Z,13.52
2023-02-11T11:49:52.899Z,11.88
2023-02-11T11:52:39.747Z,10.07
2023-02-11T11:55:09.546Z,11.48
2023-02-11T11:57:40.007Z,10.20
2023-02-11T12:00:19.080Z,11.77
2023-02-11T12:03:09.141Z,11.15
2023-02-11T12:05:37.561Z,11.38
2023-02-11T12:08:21.619Z,10.90
2023-02-11T12:11:03.390Z,10.20
2023-02-11T12:14:00.979Z,11.73
2023-02-11T12:16:53.664Z,10.38
2023-02-11T12:19:28.749Z,10.82
2023-02-11T12:22:30.618Z,11.50
2023-02-11T12:25:06.510Z,10.88
2023-02-11T12:28:00.653Z,9.63
2023-02-11T12:30:55.474Z,10.38
2023-02-11T12:34:01.820Z,11.15
2023-02-11T12:36:37.534Z,10.60
2023-02-11T12:39:16.186Z,10.60
2023-02-11T12:42:26.742Z,10.02
2023-02-11T12:45:21.121Z,10.88
2023-02-11T12:48:09.311Z,9.82
2023-02-11T12:50:55.419Z,9.30
2023-02-11T12:53:40.197Z,8.95
2023-02-11T12:56:27.156Z,9.38
2023-02-11T12:59:01.672Z,9.60
2023-02-11T13:01:37.013Z,9.07
2023-02-11T13:06:51.061Z,8.50
2023-02-11T13:09:30.861Z,8.45
2023-02-11T13:12:20.931Z,9.63
2023-02-11T13:14:54.860Z,8.40
2023-02-11T13:17:34.289Z,8.95
2023-02-11T13:20:10.154Z,7.53
2023-02-11T13:23:00.211Z,8.25
2023-02-11T13:25:57.995Z,8.43
2023-02-11T13:28:32.437Z,9.57
2023-02-11T13:31:03.554Z,7.63
2023-02-11T13:33:43.525Z,8.55
2023-02-11T13:36:14.943Z,8.40
2023-02-11T13:38:54.375Z,8.07
2023-02-11T13:41:26.475Z,7.70
2023-02-11T13:44:11.128Z,7.97
2023-02-11T13:46:54.278Z,8.10
2023-02-11T13:49:42.584Z,8.20
2023-02-11T13:52:30.839Z,8.10
2023-02-11T13:55:06.449Z,7.97
2023-02-11T13:57:35.991Z,7.63
2023-02-11T14:00:28.182Z,8.48
2023-02-11T14:03:31.775Z,8.50
2023-02-11T14:06:29.115Z,8.60
2023-02-11T14:09:11.538Z,7.25
2023-02-11T14:11:43.432Z,8.60
2023-02-11T14:14:30.714Z,8.85
2023-02-11T14:17:01.005Z,8.10
2023-02-11T14:19:38.776Z,8.20
2023-02-11T14:22:17.458Z,9.63
2023-02-11T14:25:05.885Z,7.85
2023-02-11T14:27:49.080Z,7.70
2023-02-11T14:30:25.328Z,8.90
2023-02-11T14:33:00.194Z,7.75
2023-02-11T14:35:49.983Z,7.85
2023-02-11T14:38:42.493Z,8.10
2023-02-11T14:41:30.810Z,8.23
2023-02-11T14:44:30.330Z,8.02
2023-02-11T14:46:57.307Z,8.90
2023-02-11T14:49:35.762Z,9.38
2023-02-11T14:52:29.888Z,9.48
2023-02-11T14:55:13.573Z,8.50
2023-02-11T14:57:42.259Z,8.85
2023-02-11T15:00:21.708Z,8.95
2023-02-11T15:02:48.519Z,10.15
2023-02-11T15:05:17.822Z,9.27
2023-02-11T15:10:47.486Z,8.65
2023-02-11T15:13:21.723Z,9.70
2023-02-11T15:15:52.341Z,10.82
2023-02-11T15:18:30.226Z,10.38
2023-02-11T15:20:57.373Z,8.80
2023-02-11T15:23:28.560Z,10.07
2023-02-11T15:25:58.103Z,9.05
2023-02-11T15:28:33.409Z,9.13
2023-02-11T15:31:07.066Z,9.55
2023-02-11T15:33:35.996Z,8.18
2023-02-11T15:36:03.455Z,9.35
2023-02-11T15:38:34.963Z,7.35
2023-02-11T15:41:03.750Z,9.70
2023-02-11T15:43:44.373Z,9.85
2023-02-11T15:46:18.543Z,8.57
2023-02-11T15:48:51.664Z,9.88
2023-02-11T15:51:32.919Z,10.15
2023-02-11T15:54:02.670Z,9.73
2023-02-11T15:56:33.047Z,18.80
2023-02-11T15:59:09.161Z,9.98
2023-02-11T16:01:37.547Z,10.02
2023-02-11T16:04:07.080Z,10.10
2023-02-11T16:06:47.803Z,9.40
2023-02-11T16:09:14.510Z,9.80
2023-02-11T16:11:49.397Z,11.20
2023-02-11T16:14:29.456Z,11.02
2023-02-11T16:17:18.795Z,10.90
2023-02-11T16:19:49.026Z,9.20
2023-02-11T16:22:19.245Z,28.90
2023-02-11T16:24:48.459Z,15.77
2023-02-11T16:27:35.460Z,12.43
2023-02-11T16:30:05.700Z,11.15
2023-02-11T16:32:32.431Z,11.48
2023-02-11T16:35:03.229Z,10.05
2023-02-11T16:37:32.703Z,11.27
2023-02-11T16:40:01.709Z,10.05
2023-02-11T16:42:31.027Z,11.50
2023-02-11T16:45:02.790Z,11.48
2023-02-11T16:47:40.899Z,9.90
2023-02-11T16:50:19.162Z,16.30
2023-02-11T16:52:49.167Z,16.00
2023-02-11T16:55:18.807Z,13.68
2023-02-11T16:57:50.823Z,11.82
2023-02-11T17:00:17.987Z,11.77
2023-02-11T17:02:45.017Z,10.88
2023-02-11T17:05:19.459Z,9.07
2023-02-11T17:07:46.944Z,10.43
2023-02-11T17:10:24.454Z,10.40
2023-02-11T17:12:51.536Z,9.88
2023-02-11T17:15:18.378Z,10.27
2023-02-11T17:17:46.235Z,10.65
2023-02-11T17:20:14.332Z,13.98
2023-02-11T17:22:43.763Z,10.82
2023-02-11T17:25:10.668Z,10.45
2023-02-11T17:27:37.340Z,9.82
2023-02-11T17:30:05.342Z,9.63
2023-02-11T17:32:31.973Z,10.43
2023-02-11T17:34:58.705Z,10.05
2023-02-11T17:37:28.054Z,9.38
2023-02-11T17:42:23.884Z,10.07
2023-02-11T17:44:52.846Z,9.48
2023-02-11T17:47:19.432Z,9.20
2023-02-11T17:49:45.990Z,10.32
2023-02-11T17:52:15.003Z,11.02
2023-02-11T17:54:43.936Z,10.95
2023-02-11T17:57:12.762Z,10.13
2023-02-11T18:08:35.585Z,10.70
2023-02-11T18:11:02.609Z,10.18
2023-02-11T18:13:32.048Z,10.73
2023-02-11T18:19:41.450Z,13.90
2023-02-11T18:22:11.927Z,11.55
2023-02-11T18:24:45.808Z,12.23
2023-02-11T18:31:01.016Z,12.02
2023-02-11T18:33:29.904Z,11.43
2023-02-11T18:39:51.984Z,11.88
2023-02-11T18:42:18.579Z,13.73
2023-02-11T18:48:32.604Z,11.13
2023-02-11T18:51:01.735Z,11.90
2023-02-11T18:53:30.726Z,11.25
2023-02-11T18:55:57.353Z,12.20
2023-02-11T18:58:24.086Z,11.02
2023-02-11T19:00:55.561Z,11.82
2023-02-11T19:03:24.594Z,11.00
2023-02-11T19:05:56.597Z,11.10
2023-02-11T19:08:23.284Z,12.02
2023-02-11T19:10:50.128Z,11.20
2023-02-11T19:13:16.810Z,10.30
2023-02-11T19:15:49.151Z,11.85
2023-02-11T19:18:19.200Z,8.88
2023-02-11T19:20:48.341Z,8.98
2023-02-11T19:23:17.239Z,9.65
2023-02-11T19:26:06.502Z,10.63
2023-02-11T19:28:42.346Z,9.77
2023-02-11T19:31:11.629Z,10.25
2023-02-11T19:36:09.754Z,10.07
2023-02-11T19:38:36.512Z,10.02
2023-02-11T19:41:03.278Z,11.00
2023-02-11T19:43:30.297Z,10.57
2023-02-11T19:46:03.484Z,10.18
2023-02-11T19:48:32.929Z,12.25
2023-02-11T19:51:12.109Z,12.63
2023-02-11T19:53:42.453Z,12.50
2023-02-11T19:58:39.983Z,12.77
2023-02-11T20:01:06.832Z,13.00
2023-02-11T20:03:36.805Z,13.02
2023-02-11T20:06:17.260Z,11.93
2023-02-11T20:08:47.138Z,13.02
2023-02-11T20:11:16.295Z,12.95
2023-02-11T20:13:52.504Z,11.63
2023-02-11T20:16:27.055Z,12.50
2023-02-11T20:19:01.164Z,12.23
2023-02-11T20:21:31.028Z,14.13
2023-02-11T20:24:03.168Z,12.80
2023-02-11T20:26:34.894Z,12.02
2023-02-11T20:29:02.592Z,12.13
2023-02-11T20:31:32.191Z,11.98
2023-02-11T20:34:02.311Z,11.55
2023-02-11T20:36:32.153Z,10.98
2023-02-11T20:39:00.192Z,11.77
2023-02-11T20:41:32.496Z,10.85
2023-02-11T20:44:01.297Z,9.50
2023-02-11T20:46:33.068Z,9.10
2023-02-11T20:49:03.904Z,8.30
2023-02-11T20:51:36.888Z,8.57
2023-02-11T20:54:04.109Z,8.60
2023-02-11T20:56:36.102Z,7.07
2023-02-11T20:59:04.326Z,8.07
2023-02-11T21:01:40.301Z,8.98
2023-02-11T21:04:11.682Z,8.93
2023-02-11T21:06:42.037Z,9.82
2023-02-11T21:09:13.380Z,8.15
2023-02-11T21:11:43.168Z,9.48
2023-02-11T21:14:13.344Z,7.65
2023-02-11T21:16:41.394Z,9.13
2023-02-11T21:19:08.065Z,9.48
2023-02-11T21:21:38.932Z,8.68
2023-02-11T21:24:07.168Z,7.25
2023-02-11T21:26:37.284Z,8.88
2023-02-11T21:29:09.669Z,9.23
2023-02-11T21:31:37.228Z,9.05
2023-02-11T21:34:04.414Z,8.02
2023-02-11T21:36:31.155Z,9.13
2023-02-11T21:39:01.754Z,8.25
2023-02-11T21:41:28.553Z,8.27
2023-02-11T21:43:55.150Z,9.23
2023-02-11T21:46:22.463Z,9.68
2023-02-11T21:48:49.536Z,8.43
2023-02-11T21:51:22.510Z,9.25
2023-02-11T21:53:56.039Z,8.68
2023-02-11T21:56:23.065Z,8.27
2023-02-11T21:58:59.134Z,8.40
2023-02-11T22:01:28.962Z,10.05
2023-02-11T22:03:55.978Z,9.68
2023-02-11T22:06:31.156Z,9.52
2023-02-11T22:09:18.922Z,8.77
2023-02-11T22:11:49.288Z,9.57
2023-02-11T22:14:16.351Z,9.50
2023-02-11T22:16:45.259Z,9.73
2023-02-11T22:19:12.268Z,8.30
2023-02-11T22:21:38.906Z,9.05
2023-02-11T22:24:08.482Z,8.70
2023-02-11T22:26:35.189Z,8.18
2023-02-11T22:29:02.045Z,10.23
2023-02-11T22:31:32.127Z,8.15
2023-02-11T22:34:02.277Z,8.90
2023-02-11T22:36:34.906Z,10.70
2023-02-11T22:39:03.853Z,9.70
2023-02-11T22:41:30.591Z,9.10
2023-02-11T22:43:57.211Z,9.57
2023-02-11T22:46:27.716Z,10.43
2023-02-11T22:48:55.043Z,10.07
2023-02-11T22:51:24.606Z,8.98
2023-02-11T22:53:56.440Z,10.25
2023-02-11T22:56:23.615Z,8.27
2023-02-11T22:58:50.977Z,9.38
2023-02-11T23:01:18.366Z,9.25
2023-02-11T23:03:45.270Z,9.43
2023-02-11T23:06:12.047Z,9.13
2023-02-11T23:08:43.046Z,9.80
2023-02-11T23:11:19.717Z,10.30
2023-02-11T23:13:50.681Z,9.02
2023-02-11T23:16:21.078Z,9.13
2023-02-11T23:18:51.408Z,9.40
2023-02-11T23:21:29.289Z,9.10
2023-02-11T23:24:01.575Z,9.85
2023-02-11T23:26:28.708Z,9.00
2023-02-11T23:28:58.723Z,9.85
2023-02-11T23:31:39.741Z,9.35
2023-02-11T23:34:07.738Z,9.60
2023-02-11T23:36:34.617Z,7.97
2023-02-11T23:39:03.411Z,10.10
2023-02-11T23:41:29.992Z,10.00
2023-02-11T23:44:00.185Z,9.05
2023-02-11T23:46:30.059Z,8.57
2023-02-11T23:48:56.778Z,8.55
2023-02-11T23:51:26.281Z,12.25
2023-02-11T23:53:56.062Z,8.32
2023-02-11T23:56:29.402Z,10.27
2023-02-11T23:58:58.304Z,10.88
